createdAt,value
2023-02-15T00:00:57.231Z,15.97
2023-02-15T00:02:59.997Z,16.13
2023-02-15T00:05:02.770Z,16.47
2023-02-15T00:07:05.499Z,16.97
2023-02-15T00:09:08.563Z,16.37
2023-02-15T00:11:11.953Z,17.17
2023-02-15T00:13:14.659Z,16.43
2023-02-15T00:15:18.736Z,16.80
2023-02-15T00:17:22.616Z,16.53
2023-02-15T00:19:25.317Z,18.20
2023-02-15T00:21:28.068Z,19.20
2023-02-15T00:23:30.776Z,17.50
2023-02-15T00:25:33.526Z,17.50
2023-02-15T00:27:36.284Z,17.50
2023-02-15T00:29:39.004Z,18.40
2023-02-15T00:31:43.456Z,18.20
2023-02-15T00:33:46.189Z,19.00
2023-02-15T00:35:48.894Z,18.17
2023-02-15T00:37:53.388Z,18.10
2023-02-15T00:39:56.377Z,19.10
2023-02-15T00:41:59.044Z,18.40
2023-02-15T00:44:01.784Z,19.90
2023-02-15T00:46:04.959Z,19.10
2023-02-15T00:48:09.312Z,18.50
2023-02-15T00:50:12.153Z,20.10
2023-02-15T00:52:14.811Z,19.50
2023-02-15T00:54:17.504Z,19.00
2023-02-15T00:56:20.464Z,19.23
2023-02-15T00:58:23.138Z,19.87
2023-02-15T01:00:25.894Z,20.80
2023-02-15T01:02:29.219Z,21.50
2023-02-15T01:04:33.577Z,20.00
2023-02-15T01:06:36.335Z,20.50
2023-02-15T01:08:39.108Z,20.10
2023-02-15T01:10:41.857Z,21.00
2023-02-15T01:12:45.051Z,20.47
2023-02-15T01:14:47.849Z,21.80
2023-02-15T01:16:50.576Z,22.37
2023-02-15T01:18:53.308Z,20.40
2023-02-15T01:20:57.556Z,22.73
2023-02-15T01:23:00.256Z,22.97
2023-02-15T01:25:02.990Z,22.53
2023-02-15T01:27:05.700Z,21.83
2023-02-15T01:29:08.690Z,21.90
2023-02-15T01:31:12.650Z,22.90
2023-02-15T01:33:18.962Z,21.80
2023-02-15T01:35:21.838Z,21.80
2023-02-15T01:37:26.142Z,22.53
2023-02-15T01:39:28.854Z,21.60
2023-02-15T01:41:31.923Z,22.20
2023-02-15T01:43:42.263Z,23.27
2023-02-15T01:45:47.327Z,23.20
2023-02-15T01:47:52.009Z,23.77
2023-02-15T01:50:01.897Z,23.33
2023-02-15T01:52:04.666Z,22.63
2023-02-15T01:54:13.179Z,22.97
2023-02-15T01:56:17.016Z,22.53
2023-02-15T01:58:19.984Z,24.03
2023-02-15T02:00:23.518Z,23.20
2023-02-15T02:02:26.522Z,24.00
2023-02-15T02:04:31.944Z,22.10
2023-02-15T02:06:35.844Z,21.07
2023-02-15T02:08:38.533Z,24.20
2023-02-15T02:10:42.534Z,23.50
2023-02-15T02:12:46.320Z,24.70
2023-02-15T02:14:49.413Z,23.60
2023-02-15T02:16:54.925Z,22.50
2023-02-15T02:19:07.472Z,23.47
2023-02-15T02:21:25.619Z,23.50
2023-02-15T02:23:36.185Z,22.03
2023-02-15T02:25:54.212Z,23.70
2023-02-15T02:27:58.586Z,21.87
2023-02-15T02:30:14.326Z,22.70
2023-02-15T02:32:40.140Z,23.70
2023-02-15T02:34:45.062Z,25.20
2023-02-15T02:36:50.758Z,23.93
2023-02-15T02:39:02.874Z,24.03
2023-02-15T02:41:10.136Z,22.80
2023-02-15T02:43:13.885Z,24.03
2023-02-15T02:45:18.359Z,24.80
2023-02-15T02:47:25.058Z,22.30
2023-02-15T02:49:32.568Z,24.50
2023-02-15T02:51:36.555Z,23.53
2023-02-15T02:53:39.555Z,23.50
2023-02-15T02:55:44.060Z,25.27
2023-02-15T02:57:50.670Z,23.47
2023-02-15T02:59:53.401Z,23.33
2023-02-15T03:01:57.583Z,23.90
2023-02-15T03:04:02.673Z,22.80
2023-02-15T03:06:07.041Z,22.97
2023-02-15T03:08:11.265Z,23.00
2023-02-15T03:10:13.961Z,24.70
2023-02-15T03:12:19.168Z,23.30
2023-02-15T03:14:21.874Z,23.10
2023-02-15T03:16:26.812Z,23.00
2023-02-15T03:18:30.875Z,22.87
2023-02-15T03:20:35.293Z,24.00
2023-02-15T03:22:38.805Z,23.07
2023-02-15T03:24:45.111Z,22.50
2023-02-15T03:26:48.656Z,24.70
2023-02-15T03:28:52.655Z,22.30
2023-02-15T03:30:56.989Z,22.53
2023-02-15T03:32:59.957Z,23.57
2023-02-15T03:35:02.684Z,22.00
2023-02-15T03:37:08.340Z,23.30
2023-02-15T03:39:14.753Z,22.37
2023-02-15T03:41:17.822Z,21.57
2023-02-15T03:43:32.384Z,22.40
2023-02-15T03:45:35.050Z,21.47
2023-02-15T03:47:39.147Z,21.80
2023-02-15T03:49:44.295Z,21.97
2023-02-15T03:51:47.200Z,21.63
2023-02-15T03:53:50.148Z,21.60
2023-02-15T03:55:55.700Z,21.27
2023-02-15T03:58:10.929Z,22.37
2023-02-15T04:00:26.651Z,21.77
2023-02-15T04:02:30.438Z,19.97
2023-02-15T04:04:35.617Z,23.43
2023-02-15T04:06:38.599Z,21.33
2023-02-15T04:08:52.283Z,21.67
2023-02-15T04:10:56.243Z,21.67
2023-02-15T04:13:00.212Z,21.53
2023-02-15T04:15:14.197Z,22.50
2023-02-15T04:17:16.858Z,22.53
2023-02-15T04:19:30.736Z,22.57
2023-02-15T04:21:45.751Z,22.40
2023-02-15T04:23:59.465Z,21.80
2023-02-15T04:26:05.418Z,20.20
2023-02-15T04:28:09.604Z,21.90
2023-02-15T04:30:13.566Z,23.57
2023-02-15T04:32:16.301Z,21.53
2023-02-15T04:34:19.040Z,23.70
2023-02-15T04:36:21.874Z,21.27
2023-02-15T04:38:30.942Z,21.87
2023-02-15T04:40:33.648Z,20.93
2023-02-15T04:42:36.349Z,21.10
2023-02-15T04:44:40.398Z,22.40
2023-02-15T04:46:43.375Z,21.27
2023-02-15T04:48:46.130Z,21.77
2023-02-15T04:50:48.798Z,20.93
2023-02-15T04:52:51.599Z,21.17
2023-02-15T04:54:54.596Z,22.50
2023-02-15T04:56:57.323Z,20.43
2023-02-15T04:59:00.057Z,19.97
2023-02-15T05:01:04.086Z,21.97
2023-02-15T05:03:07.116Z,20.60
2023-02-15T05:05:10.503Z,20.80
2023-02-15T05:07:13.206Z,20.23
2023-02-15T05:09:16.076Z,21.37
2023-02-15T05:11:19.083Z,20.27
2023-02-15T05:13:21.821Z,19.77
2023-02-15T05:15:24.585Z,19.73
2023-02-15T05:17:28.595Z,19.30
2023-02-15T05:19:31.557Z,19.40
2023-02-15T05:21:34.358Z,19.03
2023-02-15T05:23:37.058Z,17.50
2023-02-15T05:25:50.785Z,18.60
2023-02-15T05:28:05.577Z,18.50
2023-02-15T05:30:12.482Z,17.83
2023-02-15T05:32:15.713Z,16.53
2023-02-15T05:34:20.152Z,16.30
2023-02-15T05:36:22.841Z,16.20
2023-02-15T05:38:25.616Z,17.50
2023-02-15T05:40:28.520Z,14.90
2023-02-15T05:42:31.563Z,15.87
2023-02-15T05:44:34.274Z,17.07
2023-02-15T05:46:36.946Z,14.97
2023-02-15T05:48:39.632Z,15.67
2023-02-15T05:50:44.105Z,14.87
2023-02-15T05:52:46.875Z,14.47
2023-02-15T05:54:49.588Z,15.20
2023-02-15T05:56:52.327Z,14.47
2023-02-15T05:58:55.849Z,13.77
2023-02-15T06:00:58.628Z,13.30
2023-02-15T06:03:01.372Z,14.03
2023-02-15T06:05:04.203Z,12.47
2023-02-15T06:07:09.516Z,13.90
2023-02-15T06:09:12.961Z,13.10
2023-02-15T06:11:15.706Z,13.37
2023-02-15T06:13:18.504Z,13.10
2023-02-15T06:15:21.899Z,12.37
2023-02-15T06:17:24.641Z,12.20
2023-02-15T06:19:27.420Z,12.40
2023-02-15T06:21:30.250Z,13.30
2023-02-15T06:23:34.745Z,12.77
2023-02-15T06:25:39.909Z,12.70
2023-02-15T06:27:43.150Z,12.30
2023-02-15T06:29:45.897Z,12.27
2023-02-15T06:31:49.201Z,12.13
2023-02-15T06:33:51.982Z,11.57
2023-02-15T06:35:54.652Z,12.30
2023-02-15T06:37:57.390Z,11.50
2023-02-15T06:40:03.843Z,10.93
2023-02-15T06:42:06.791Z,11.93
2023-02-15T06:44:09.618Z,12.53
2023-02-15T06:46:12.357Z,11.00
2023-02-15T06:48:15.404Z,11.50
2023-02-15T06:50:18.260Z,10.40
2023-02-15T06:52:21.279Z,10.80
2023-02-15T06:54:24.022Z,11.80
2023-02-15T06:56:28.439Z,11.10
2023-02-15T06:58:31.088Z,11.33
2023-02-15T07:00:33.808Z,11.13
2023-02-15T07:02:36.807Z,10.20
2023-02-15T07:04:39.549Z,10.87
2023-02-15T07:06:42.259Z,11.63
2023-02-15T07:08:45.475Z,9.73
2023-02-15T07:10:48.162Z,9.97
2023-02-15T07:12:51.187Z,10.50
2023-02-15T07:14:54.067Z,11.97
2023-02-15T07:16:57.160Z,9.50
2023-02-15T07:18:59.876Z,10.10
2023-02-15T07:21:02.544Z,10.00
2023-02-15T07:23:05.303Z,9.93
2023-02-15T07:25:09.171Z,9.30
2023-02-15T07:27:13.590Z,9.23
2023-02-15T07:29:20.419Z,9.20
2023-02-15T07:31:23.470Z,8.40
2023-02-15T07:33:27.923Z,8.37
2023-02-15T07:35:30.633Z,9.60
2023-02-15T07:37:33.358Z,9.20
2023-02-15T07:39:36.472Z,8.40
2023-02-15T07:41:39.185Z,9.13
2023-02-15T07:43:42.947Z,7.50
2023-02-15T07:45:46.959Z,8.40
2023-02-15T07:47:50.074Z,8.40
2023-02-15T07:49:52.846Z,7.80
2023-02-15T07:51:55.577Z,7.80
2023-02-15T07:53:58.276Z,6.90
2023-02-15T07:56:01.861Z,8.00
2023-02-15T07:58:04.758Z,7.40
2023-02-15T08:00:08.585Z,7.63
2023-02-15T08:02:12.971Z,7.47
2023-02-15T08:04:15.991Z,6.83
2023-02-15T08:06:18.705Z,6.80
2023-02-15T08:08:31.981Z,6.90
2023-02-15T08:10:45.705Z,7.10
2023-02-15T08:12:48.434Z,6.93
2023-02-15T08:14:54.062Z,7.63
2023-02-15T08:16:57.746Z,6.70
2023-02-15T08:19:03.327Z,6.50
2023-02-15T08:21:06.273Z,7.00
2023-02-15T08:23:11.765Z,6.40
2023-02-15T08:25:14.639Z,6.37
2023-02-15T08:27:17.319Z,6.60
2023-02-15T08:29:20.953Z,6.53
2023-02-15T08:31:24.192Z,6.40
2023-02-15T08:33:26.990Z,6.83
2023-02-15T08:35:30.986Z,5.80
2023-02-15T08:37:33.704Z,6.17
2023-02-15T08:39:37.016Z,5.97
2023-02-15T08:41:40.591Z,6.10
2023-02-15T08:43:43.421Z,5.97
2023-02-15T08:45:46.808Z,6.17
2023-02-15T08:47:49.608Z,6.03
2023-02-15T08:49:57.930Z,5.70
2023-02-15T08:52:01.923Z,5.30
2023-02-15T08:54:06.431Z,6.10
2023-02-15T08:56:09.239Z,5.33
2023-02-15T08:58:11.952Z,5.77
2023-02-15T09:00:15.911Z,5.03
2023-02-15T09:02:19.134Z,5.30
2023-02-15T09:04:21.958Z,4.87
2023-02-15T09:06:24.845Z,4.87
2023-02-15T09:08:28.887Z,5.30
2023-02-15T09:10:32.050Z,5.30
2023-02-15T09:12:34.778Z,4.10
2023-02-15T09:14:37.511Z,4.90
2023-02-15T09:16:40.279Z,4.30
2023-02-15T09:18:43.542Z,4.73
2023-02-15T09:20:46.534Z,4.43
2023-02-15T09:22:49.213Z,4.30
2023-02-15T09:24:53.691Z,4.60
2023-02-15T09:26:56.402Z,5.40
2023-02-15T09:29:00.923Z,4.63
2023-02-15T09:31:10.048Z,4.67
2023-02-15T09:33:12.797Z,4.57
2023-02-15T09:35:15.593Z,4.33
2023-02-15T09:37:18.548Z,4.27
2023-02-15T09:39:23.447Z,4.00
2023-02-15T09:41:47.256Z,4.50
2023-02-15T09:43:52.823Z,4.40
2023-02-15T09:46:04.293Z,4.57
2023-02-15T09:48:15.702Z,4.10
2023-02-15T09:50:20.797Z,3.93
2023-02-15T09:52:34.644Z,4.00
2023-02-15T09:54:44.788Z,3.70
2023-02-15T09:56:50.495Z,4.07
2023-02-15T09:58:56.353Z,4.10
2023-02-15T10:01:02.276Z,4.40
2023-02-15T10:03:14.151Z,4.00
2023-02-15T10:05:24.283Z,3.60
2023-02-15T10:07:36.613Z,3.57
2023-02-15T10:09:44.348Z,4.30
2023-02-15T10:11:56.445Z,4.30
2023-02-15T10:14:04.605Z,4.13
2023-02-15T10:16:15.068Z,4.40
2023-02-15T10:18:25.217Z,3.87
2023-02-15T10:20:30.707Z,3.47
2023-02-15T10:22:39.583Z,3.57
2023-02-15T10:24:50.383Z,3.50
2023-02-15T10:26:54.372Z,4.07
2023-02-15T10:28:58.743Z,3.90
2023-02-15T10:31:05.126Z,3.63
2023-02-15T10:33:12.666Z,3.87
2023-02-15T10:35:18.875Z,3.20
2023-02-15T10:37:33.395Z,3.43
2023-02-15T10:39:43.446Z,3.63
2023-02-15T10:41:49.914Z,3.67
2023-02-15T10:44:07.542Z,3.80
2023-02-15T10:46:14.066Z,3.23
2023-02-15T10:48:24.853Z,3.40
2023-02-15T10:50:35.892Z,3.60
2023-02-15T10:52:44.198Z,3.07
2023-02-15T10:54:48.839Z,3.63
2023-02-15T10:56:54.822Z,3.20
2023-02-15T10:59:09.508Z,3.53
2023-02-15T11:01:15.889Z,3.23
2023-02-15T11:03:26.207Z,3.70
2023-02-15T11:05:37.055Z,3.07
2023-02-15T11:07:40.696Z,2.97
2023-02-15T11:09:45.676Z,3.53
2023-02-15T11:11:50.276Z,3.03
2023-02-15T11:14:01.050Z,3.07
2023-02-15T11:16:06.668Z,2.80
2023-02-15T11:18:13.440Z,3.37
2023-02-15T11:20:19.628Z,3.30
2023-02-15T11:22:22.592Z,3.23
2023-02-15T11:24:28.028Z,3.07
2023-02-15T11:26:32.035Z,3.07
2023-02-15T11:28:36.709Z,3.40
2023-02-15T11:30:44.770Z,2.73
2023-02-15T11:32:50.261Z,2.93
2023-02-15T11:34:55.181Z,3.03
2023-02-15T11:36:58.302Z,3.03
2023-02-15T11:39:04.805Z,2.90
2023-02-15T11:41:09.379Z,3.10
2023-02-15T11:43:14.495Z,3.57
2023-02-15T11:45:23.330Z,3.10
2023-02-15T11:47:26.013Z,3.00
2023-02-15T11:49:32.090Z,2.30
2023-02-15T11:51:34.789Z,2.97
2023-02-15T11:53:38.773Z,2.60
2023-02-15T11:55:41.658Z,3.30
2023-02-15T11:57:45.382Z,2.70
2023-02-15T11:59:49.353Z,3.17
2023-02-15T12:01:52.370Z,3.03
2023-02-15T12:03:56.371Z,2.60
2023-02-15T12:06:03.491Z,2.50
2023-02-15T12:08:13.227Z,3.07
2023-02-15T12:10:19.794Z,2.77
2023-02-15T12:12:29.057Z,2.67
2023-02-15T12:14:33.243Z,2.50
2023-02-15T12:16:43.724Z,2.23
2023-02-15T12:18:46.399Z,2.40
2023-02-15T12:20:49.109Z,2.40
2023-02-15T12:22:54.042Z,2.40
2023-02-15T12:24:57.600Z,2.70
2023-02-15T12:27:02.454Z,2.67
2023-02-15T12:29:09.453Z,2.20
2023-02-15T12:31:25.353Z,2.73
2023-02-15T12:33:30.486Z,2.13
2023-02-15T12:35:34.636Z,2.37
2023-02-15T12:37:37.390Z,2.43
2023-02-15T12:39:42.248Z,2.80
2023-02-15T12:41:46.761Z,2.60
2023-02-15T12:43:49.472Z,2.30
2023-02-15T12:45:53.029Z,2.50
2023-02-15T12:48:11.404Z,2.60
2023-02-15T12:50:19.151Z,2.80
2023-02-15T12:52:27.807Z,2.83
2023-02-15T12:54:40.109Z,2.60
2023-02-15T12:56:48.766Z,2.77
2023-02-15T12:58:51.441Z,2.80
2023-02-15T13:01:06.954Z,2.60
2023-02-15T13:03:18.153Z,2.80
2023-02-15T13:05:24.523Z,2.77
2023-02-15T13:07:32.148Z,2.50
2023-02-15T13:09:39.103Z,2.70
2023-02-15T13:11:41.808Z,2.80
2023-02-15T13:13:52.888Z,2.43
2023-02-15T13:15:56.421Z,2.40
2023-02-15T13:17:59.692Z,2.20
2023-02-15T13:20:04.585Z,2.50
2023-02-15T13:22:08.644Z,2.33
2023-02-15T13:24:19.594Z,2.40
2023-02-15T13:26:23.409Z,2.47
2023-02-15T13:28:29.663Z,2.47
2023-02-15T13:30:36.381Z,2.13
2023-02-15T13:32:41.812Z,2.53
2023-02-15T13:34:44.529Z,2.23
2023-02-15T13:36:51.509Z,2.83
2023-02-15T13:39:00.642Z,2.63
2023-02-15T13:41:05.178Z,2.50
2023-02-15T13:43:15.670Z,2.57
2023-02-15T13:45:28.872Z,2.87
2023-02-15T13:47:36.578Z,2.47
2023-02-15T13:49:46.507Z,2.57
2023-02-15T13:51:53.246Z,2.60
2023-02-15T13:54:13.880Z,2.60
2023-02-15T13:56:20.125Z,2.70
2023-02-15T13:58:34.429Z,2.67
2023-02-15T14:00:40.938Z,2.90
2023-02-15T14:02:54.418Z,3.07
2023-02-15T14:05:08.663Z,2.50
2023-02-15T14:07:19.973Z,2.30
2023-02-15T14:09:30.429Z,2.50
2023-02-15T14:11:36.072Z,2.60
2023-02-15T14:13:53.452Z,2.27
2023-02-15T14:15:57.670Z,2.93
2023-02-15T14:18:08.163Z,2.23
2023-02-15T14:20:17.229Z,2.40
2023-02-15T14:22:25.390Z,2.30
2023-02-15T14:24:31.825Z,2.30
2023-02-15T14:26:39.110Z,2.60
2023-02-15T14:28:44.955Z,2.40
2023-02-15T14:30:53.000Z,2.27
2023-02-15T14:32:56.861Z,2.20
2023-02-15T14:35:01.808Z,2.20
2023-02-15T14:37:04.485Z,2.20
2023-02-15T14:39:35.698Z,2.50
2023-02-15T14:41:39.528Z,2.40
2023-02-15T14:43:50.892Z,2.03
2023-02-15T14:45:56.182Z,2.30
2023-02-15T14:48:06.230Z,2.10
2023-02-15T14:50:34.702Z,2.43
2023-02-15T14:52:40.838Z,2.30
2023-02-15T14:54:58.074Z,2.00
2023-02-15T14:57:25.952Z,2.57
2023-02-15T14:59:28.956Z,2.30
2023-02-15T15:01:32.951Z,2.30
2023-02-15T15:03:36.344Z,2.30
2023-02-15T15:05:48.036Z,2.50
2023-02-15T15:07:52.906Z,2.20
2023-02-15T15:10:01.803Z,2.40
2023-02-15T15:12:38.636Z,2.10
2023-02-15T15:14:42.578Z,2.50
2023-02-15T15:16:52.139Z,2.20
2023-02-15T15:18:54.853Z,2.60
2023-02-15T15:20:57.577Z,2.50
2023-02-15T15:23:31.382Z,2.30
2023-02-15T15:25:45.721Z,2.20
2023-02-15T15:27:51.893Z,2.53
2023-02-15T15:29:54.708Z,2.57
2023-02-15T15:31:58.023Z,2.50
2023-02-15T15:34:24.103Z,2.40
2023-02-15T15:36:49.507Z,2.53
2023-02-15T15:38:56.024Z,2.40
2023-02-15T15:41:11.944Z,2.20
2023-02-15T15:43:34.047Z,2.27
2023-02-15T15:45:43.646Z,2.33
2023-02-15T15:48:05.196Z,2.23
2023-02-15T15:50:13.919Z,2.03
2023-02-15T15:52:17.671Z,2.20
2023-02-15T15:54:21.751Z,1.97
2023-02-15T15:56:28.926Z,2.10
2023-02-15T15:58:32.764Z,2.00
2023-02-15T16:00:40.100Z,2.43
2023-02-15T16:02:56.507Z,2.50
2023-02-15T16:05:08.468Z,2.33
2023-02-15T16:07:16.683Z,2.20
2023-02-15T16:09:21.346Z,2.40
2023-02-15T16:11:26.185Z,2.30
2023-02-15T16:13:28.978Z,2.50
2023-02-15T16:15:35.875Z,2.30
2023-02-15T16:17:38.597Z,2.20
2023-02-15T16:19:42.160Z,2.20
2023-02-15T16:21:44.959Z,2.30
2023-02-15T16:23:55.330Z,2.23
2023-02-15T16:26:01.901Z,2.40
2023-02-15T16:28:09.981Z,2.10
2023-02-15T16:30:20.974Z,2.03
2023-02-15T16:32:25.575Z,2.33
2023-02-15T16:34:29.095Z,1.73
2023-02-15T16:36:34.881Z,2.07
2023-02-15T16:39:02.212Z,2.20
2023-02-15T16:41:05.317Z,2.03
2023-02-15T16:43:15.808Z,1.90
2023-02-15T16:45:19.521Z,2.43
2023-02-15T16:47:24.651Z,1.60
2023-02-15T16:49:28.145Z,2.67
2023-02-15T16:51:33.489Z,2.27
2023-02-15T16:53:36.218Z,2.17
2023-02-15T16:55:40.469Z,1.93
2023-02-15T16:57:44.062Z,2.17
2023-02-15T16:59:49.230Z,2.30
2023-02-15T17:01:52.176Z,2.37
2023-02-15T17:04:13.718Z,2.77
2023-02-15T17:06:22.298Z,2.20
2023-02-15T17:08:27.680Z,2.20
2023-02-15T17:10:32.733Z,2.27
2023-02-15T17:12:46.337Z,2.23
2023-02-15T17:14:50.337Z,2.40
2023-02-15T17:16:54.260Z,2.47
2023-02-15T17:18:59.756Z,2.53
2023-02-15T17:21:03.590Z,2.33
2023-02-15T17:23:06.425Z,2.37
2023-02-15T17:25:21.148Z,2.30
2023-02-15T17:27:24.810Z,2.23
2023-02-15T17:29:32.934Z,2.47
2023-02-15T17:31:37.660Z,2.33
2023-02-15T17:33:41.073Z,1.97
2023-02-15T17:35:43.908Z,2.37
2023-02-15T17:37:48.214Z,2.00
2023-02-15T17:39:50.933Z,2.03
2023-02-15T17:41:53.958Z,2.70
2023-02-15T17:43:56.751Z,2.47
2023-02-15T17:45:59.858Z,2.70
2023-02-15T17:48:05.913Z,2.57
2023-02-15T17:50:09.013Z,2.33
2023-02-15T17:52:13.632Z,2.40
2023-02-15T17:54:33.832Z,2.53
2023-02-15T17:56:36.834Z,2.37
2023-02-15T17:58:40.281Z,2.50
2023-02-15T18:00:55.633Z,2.40
2023-02-15T18:03:12.089Z,2.90
2023-02-15T18:05:27.266Z,2.57
2023-02-15T18:07:41.302Z,2.90
2023-02-15T18:09:55.003Z,2.73
2023-02-15T18:11:57.907Z,3.00
2023-02-15T18:14:02.208Z,2.57
2023-02-15T18:16:05.225Z,2.90
2023-02-15T18:18:10.288Z,3.07
2023-02-15T18:20:20.001Z,2.73
2023-02-15T18:22:22.929Z,2.97
2023-02-15T18:24:26.648Z,3.30
2023-02-15T18:26:29.365Z,3.20
2023-02-15T18:28:32.593Z,2.80
2023-02-15T18:30:35.481Z,3.20
2023-02-15T18:32:39.821Z,3.73
2023-02-15T18:34:43.122Z,3.20
2023-02-15T18:36:47.512Z,2.90
2023-02-15T18:38:50.615Z,3.30
2023-02-15T18:40:54.733Z,4.00
2023-02-15T18:42:58.005Z,2.97
2023-02-15T18:45:03.055Z,3.57
2023-02-15T18:47:05.822Z,3.23
2023-02-15T18:49:08.562Z,3.17
2023-02-15T18:51:19.593Z,3.10
2023-02-15T18:53:23.645Z,3.47
2023-02-15T18:55:27.814Z,3.20
2023-02-15T18:57:30.583Z,3.33
2023-02-15T18:59:33.775Z,3.10
2023-02-15T19:01:36.581Z,3.10
2023-02-15T19:03:39.557Z,3.30
2023-02-15T19:05:43.616Z,3.00
2023-02-15T19:07:48.485Z,3.50
2023-02-15T19:09:57.232Z,3.13
2023-02-15T19:12:00.349Z,3.73
2023-02-15T19:14:05.852Z,3.40
2023-02-15T19:16:10.121Z,3.37
2023-02-15T19:18:15.563Z,3.37
2023-02-15T19:20:19.347Z,3.83
2023-02-15T19:22:24.513Z,3.47
2023-02-15T19:24:31.009Z,3.97
2023-02-15T19:26:44.808Z,4.10
2023-02-15T19:28:48.281Z,3.57
2023-02-15T19:30:51.113Z,3.67
2023-02-15T19:32:54.286Z,3.70
2023-02-15T19:34:57.014Z,4.20
2023-02-15T19:36:59.818Z,3.50
2023-02-15T19:39:02.670Z,3.90
2023-02-15T19:41:07.128Z,3.90
2023-02-15T19:43:14.848Z,3.77
2023-02-15T19:45:17.912Z,3.70
2023-02-15T19:47:22.042Z,3.80
2023-02-15T19:49:25.058Z,4.30
2023-02-15T19:51:28.273Z,3.83
2023-02-15T19:53:31.089Z,3.57
2023-02-15T19:55:37.787Z,3.87
2023-02-15T19:57:40.961Z,3.73
2023-02-15T19:59:44.980Z,4.07
2023-02-15T20:01:48.176Z,3.70
2023-02-15T20:03:52.157Z,3.80
2023-02-15T20:05:55.498Z,3.80
2023-02-15T20:07:58.380Z,4.13
2023-02-15T20:10:04.258Z,3.90
2023-02-15T20:12:11.196Z,3.43
2023-02-15T20:14:14.269Z,3.93
2023-02-15T20:16:18.440Z,3.63
2023-02-15T20:18:22.685Z,3.97
2023-02-15T20:20:28.539Z,3.30
2023-02-15T20:22:31.296Z,3.63
2023-02-15T20:24:34.218Z,3.60
2023-02-15T20:26:37.516Z,3.70
2023-02-15T20:28:43.650Z,3.30
2023-02-15T20:30:46.509Z,3.40
2023-02-15T20:32:50.576Z,3.53
2023-02-15T20:34:53.282Z,3.53
2023-02-15T20:36:56.328Z,3.40
2023-02-15T20:38:59.429Z,3.83
2023-02-15T20:41:13.164Z,3.33
2023-02-15T20:43:16.068Z,3.83
2023-02-15T20:45:20.757Z,3.57
2023-02-15T20:47:26.847Z,3.60
2023-02-15T20:49:31.736Z,3.20
2023-02-15T20:51:34.590Z,3.80
2023-02-15T20:53:37.335Z,3.37
2023-02-15T20:55:40.065Z,3.33
2023-02-15T20:57:42.895Z,3.40
2023-02-15T20:59:45.935Z,3.50
2023-02-15T21:01:48.705Z,3.50
2023-02-15T21:03:51.586Z,4.20
2023-02-15T21:05:55.891Z,3.57
2023-02-15T21:07:58.688Z,3.30
2023-02-15T21:10:01.410Z,3.63
2023-02-15T21:12:04.183Z,3.50
2023-02-15T21:14:17.271Z,3.43
2023-02-15T21:16:20.199Z,3.77
2023-02-15T21:18:24.083Z,3.53
2023-02-15T21:20:26.986Z,3.50
2023-02-15T21:22:31.327Z,3.47
2023-02-15T21:24:34.190Z,3.53
2023-02-15T21:26:44.476Z,3.20
2023-02-15T21:28:47.892Z,3.67
2023-02-15T21:30:51.024Z,3.50
2023-02-15T21:32:53.732Z,3.20
2023-02-15T21:35:15.172Z,3.13
2023-02-15T21:37:28.353Z,3.47
2023-02-15T21:39:32.768Z,2.97
2023-02-15T21:41:47.112Z,3.77
2023-02-15T21:44:00.802Z,3.47
2023-02-15T21:46:17.716Z,3.00
2023-02-15T21:48:22.816Z,3.50
2023-02-15T21:50:37.035Z,3.70
2023-02-15T21:52:39.746Z,3.60
2023-02-15T21:54:43.786Z,3.40
2023-02-15T21:56:48.346Z,3.53
2023-02-15T21:58:51.471Z,3.77
2023-02-15T22:00:55.615Z,3.40
2023-02-15T22:02:59.607Z,3.00
2023-02-15T22:05:02.385Z,2.73
2023-02-15T22:07:05.606Z,3.30
2023-02-15T22:09:14.743Z,3.43
2023-02-15T22:11:19.674Z,2.70
2023-02-15T22:13:26.438Z,3.60
2023-02-15T22:15:32.674Z,3.57
2023-02-15T22:17:36.258Z,3.50
2023-02-15T22:19:39.060Z,3.20
2023-02-15T22:21:43.262Z,3.00
2023-02-15T22:23:47.524Z,3.03
2023-02-15T22:25:54.641Z,3.10
2023-02-15T22:27:58.583Z,3.23
2023-02-15T22:30:01.407Z,3.40
2023-02-15T22:32:04.831Z,3.37
2023-02-15T22:34:07.740Z,2.60
2023-02-15T22:36:16.355Z,2.90
2023-02-15T22:38:20.573Z,3.40
2023-02-15T22:40:29.919Z,3.63
2023-02-15T22:42:32.665Z,3.47
2023-02-15T22:44:36.678Z,3.90
2023-02-15T22:46:39.872Z,3.50
2023-02-15T22:48:43.371Z,3.53
2023-02-15T22:50:46.025Z,3.50
2023-02-15T22:52:49.064Z,3.27
2023-02-15T22:54:51.755Z,3.47
2023-02-15T22:56:55.017Z,3.20
2023-02-15T22:59:00.158Z,3.20
2023-02-15T23:01:05.218Z,3.50
2023-02-15T23:03:15.104Z,3.40
2023-02-15T23:05:19.070Z,3.33
2023-02-15T23:07:23.206Z,3.07
2023-02-15T23:09:25.920Z,3.37
2023-02-15T23:11:29.256Z,3.43
2023-02-15T23:13:33.061Z,3.50
2023-02-15T23:15:35.883Z,3.47
2023-02-15T23:17:40.156Z,3.73
2023-02-15T23:19:43.275Z,3.13
2023-02-15T23:21:46.049Z,3.30
2023-02-15T23:23:50.651Z,3.43
2023-02-15T23:25:53.429Z,3.40
2023-02-15T23:27:59.500Z,3.50
2023-02-15T23:30:03.882Z,3.70
2023-02-15T23:32:06.757Z,3.10
2023-02-15T23:34:15.604Z,3.17
2023-02-15T23:36:25.679Z,3.50
2023-02-15T23:38:29.665Z,3.50
2023-02-15T23:40:47.718Z,3.30
2023-02-15T23:42:50.495Z,3.40
2023-02-15T23:44:53.232Z,3.80
2023-02-15T23:46:56.502Z,3.30
2023-02-15T23:48:59.955Z,3.10
2023-02-15T23:51:04.515Z,4.17
2023-02-15T23:53:07.449Z,3.40
2023-02-15T23:55:13.394Z,3.43
2023-02-15T23:57:16.141Z,3.23
2023-02-15T23:59:19.603Z,3.70
